createdAt,value
2023-01-08T17:21:31.596Z,48.17
2023-01-08T17:23:58.540Z,48.14
2023-01-08T17:26:25.729Z,48.36
2023-01-08T17:28:52.663Z,48.55
2023-01-08T17:31:20.934Z,48.67
2023-01-08T17:33:50.520Z,48.74
2023-01-08T17:36:20.396Z,48.82
2023-01-08T17:38:49.437Z,48.86
2023-01-08T17:41:56.368Z,49.00
2023-01-08T17:44:26.456Z,49.30
2023-01-08T17:46:53.669Z,49.47
2023-01-08T17:49:23.306Z,49.72
2023-01-08T17:51:50.411Z,49.79
2023-01-08T17:54:17.696Z,49.79
2023-01-08T17:56:45.278Z,49.85
2023-01-08T17:59:17.395Z,50.12
2023-01-08T18:01:49.382Z,50.21
2023-01-08T18:04:17.233Z,50.23
2023-01-08T18:06:44.945Z,50.38
2023-01-08T18:09:13.228Z,50.47
2023-01-08T18:11:41.501Z,50.41
2023-01-08T18:14:12.246Z,50.50
2023-01-08T18:16:39.656Z,50.56
2023-01-08T18:19:06.589Z,50.71
2023-01-08T18:21:33.757Z,50.66
2023-01-08T18:24:00.982Z,50.67
2023-01-08T18:26:30.439Z,50.90
2023-01-08T18:28:57.612Z,51.08
2023-01-08T18:31:24.788Z,51.07
2023-01-08T18:33:52.596Z,51.37
2023-01-08T18:36:20.380Z,51.51
2023-01-08T18:38:48.582Z,51.46
2023-01-08T18:41:36.688Z,51.75
2023-01-08T18:44:06.390Z,51.98
2023-01-08T18:46:33.774Z,51.93
2023-01-08T18:49:00.979Z,52.02
2023-01-08T18:51:28.415Z,52.12
2023-01-08T18:53:55.920Z,52.28
2023-01-08T18:56:33.556Z,52.30
2023-01-08T18:59:01.550Z,52.27
2023-01-08T19:01:29.470Z,52.13
2023-01-08T19:03:57.468Z,52.21
2023-01-08T19:06:25.007Z,52.23
2023-01-08T19:08:52.519Z,52.33
2023-01-08T19:11:19.776Z,52.57
2023-01-08T19:13:46.779Z,52.50
2023-01-08T19:16:14.393Z,52.66
2023-01-08T19:18:41.511Z,52.36
2023-01-08T19:21:10.221Z,52.55
2023-01-08T19:23:37.075Z,52.55
2023-01-08T19:26:08.356Z,52.30
2023-01-08T19:28:35.978Z,52.47
2023-01-08T19:31:25.335Z,52.55
2023-01-08T19:33:52.942Z,52.44
2023-01-08T19:36:23.721Z,52.30
2023-01-08T19:38:50.766Z,51.99
2023-01-08T19:41:57.191Z,51.90
2023-01-08T19:44:24.227Z,51.94
2023-01-08T19:46:51.371Z,52.01
2023-01-08T19:49:18.455Z,51.75
2023-01-08T19:52:05.748Z,51.93
2023-01-08T19:54:32.740Z,51.79
2023-01-08T19:56:59.706Z,51.94
2023-01-08T19:59:26.593Z,51.95
2023-01-08T20:01:53.573Z,52.09
2023-01-08T20:04:20.787Z,52.24
2023-01-08T20:06:47.974Z,52.24
2023-01-08T20:09:15.986Z,52.37
2023-01-08T20:11:42.984Z,52.55
2023-01-08T20:14:09.946Z,52.67
2023-01-08T20:16:37.012Z,52.80
2023-01-08T20:19:04.785Z,52.76
2023-01-08T20:21:33.680Z,52.69
2023-01-08T20:24:05.127Z,52.77
2023-01-08T20:26:32.469Z,52.90
2023-01-08T20:28:59.709Z,53.04
2023-01-08T20:31:30.806Z,53.01
2023-01-08T20:33:59.466Z,53.10
2023-01-08T20:36:30.310Z,53.17
2023-01-08T20:38:59.958Z,53.34
2023-01-08T20:41:27.397Z,53.39
2023-01-08T20:43:56.381Z,53.49
2023-01-08T20:46:28.747Z,53.50
2023-01-08T20:48:57.375Z,53.54
2023-01-08T20:51:24.209Z,53.58
2023-01-08T21:00:18.613Z,53.70
2023-01-08T21:02:45.515Z,53.61
2023-01-08T21:05:12.376Z,53.66
2023-01-08T21:07:39.128Z,53.82
2023-01-08T21:10:06.922Z,53.86
2023-01-08T21:12:35.745Z,53.94
2023-01-08T21:15:03.078Z,54.24
2023-01-08T21:17:29.956Z,54.36
2023-01-08T21:19:57.554Z,54.50
2023-01-08T21:22:24.336Z,54.54
2023-01-08T21:24:51.131Z,54.43
2023-01-08T21:27:18.011Z,54.51
2023-01-08T21:29:44.849Z,54.59
2023-01-08T21:32:11.721Z,54.90
2023-01-08T21:34:38.526Z,54.91
2023-01-08T21:37:07.586Z,54.80
2023-01-08T21:39:34.587Z,54.80
2023-01-08T21:42:20.520Z,55.04
2023-01-08T21:45:06.353Z,55.18
2023-01-08T21:47:33.179Z,55.39
2023-01-08T21:50:00.135Z,55.30
2023-01-08T21:52:46.303Z,55.04
2023-01-08T21:55:17.170Z,55.22
2023-01-08T21:57:45.469Z,55.24
2023-01-08T22:00:14.353Z,55.21
2023-01-08T22:02:41.590Z,55.38
2023-01-08T22:05:09.794Z,55.48
2023-01-08T22:07:37.647Z,55.45
2023-01-08T22:10:06.236Z,55.51
2023-01-08T22:12:33.017Z,55.58
2023-01-08T22:15:02.191Z,55.68
2023-01-08T22:17:31.110Z,55.77
2023-01-08T22:19:58.176Z,56.04
2023-01-08T22:22:25.140Z,55.89
2023-01-08T22:24:52.622Z,55.97
2023-01-08T22:27:20.730Z,55.97
2023-01-08T22:29:48.457Z,55.71
2023-01-08T22:32:15.511Z,55.69
2023-01-08T22:34:42.334Z,55.92
2023-01-08T22:37:09.239Z,55.95
2023-01-08T22:39:36.220Z,55.93
2023-01-08T22:42:03.085Z,56.03
2023-01-08T22:44:29.932Z,56.24
2023-01-08T22:46:59.129Z,56.27
2023-01-08T22:49:26.097Z,56.19
2023-01-08T22:51:55.282Z,56.10
2023-01-08T22:54:22.245Z,56.24
2023-01-08T22:56:49.100Z,56.33
2023-01-08T22:59:16.015Z,56.32
2023-01-08T23:01:42.938Z,56.32
2023-01-08T23:04:10.753Z,56.39
2023-01-08T23:06:38.462Z,56.26
2023-01-08T23:09:05.414Z,56.21
2023-01-08T23:11:32.717Z,56.24
2023-01-08T23:14:01.062Z,56.10
2023-01-08T23:16:28.000Z,56.28
2023-01-08T23:18:56.066Z,56.48
2023-01-08T23:21:26.625Z,56.55
2023-01-08T23:23:53.525Z,56.58
2023-01-08T23:26:23.575Z,56.65
2023-01-08T23:28:52.456Z,56.49
2023-01-08T23:31:24.965Z,56.70
2023-01-08T23:33:52.524Z,56.93
2023-01-08T23:36:21.489Z,56.76
2023-01-08T23:38:54.062Z,56.73
2023-01-08T23:41:25.695Z,56.67
2023-01-08T23:43:52.575Z,56.67
2023-01-08T23:46:19.405Z,56.61
2023-01-08T23:48:46.231Z,56.69
2023-01-08T23:51:13.110Z,56.81
2023-01-08T23:53:39.894Z,56.99
2023-01-08T23:56:07.839Z,57.04
2023-01-08T23:58:36.113Z,57.12
